sensor_id;sensor_type;location;lat;lon;timestamp;pressure;altitude;pressure_sealevel;temperature;humidity
53023;BME280;38913;44.338;11.206;2023-05-22T00:02:14;99697.53;;;15.35;100.00
53023;BME280;38913;44.338;11.206;2023-05-22T00:04:40;99693.63;;;15.43;100.00
53023;BME280;38913;44.338;11.206;2023-05-22T00:07:05;99705.97;;;15.54;100.00
53023;BME280;38913;44.338;11.206;2023-05-22T00:09:31;99709.94;;;15.52;100.00
53023;BME280;38913;44.338;11.206;2023-05-22T00:11:56;99708.56;;;15.49;100.00
53023;BME280;38913;44.338;11.206;2023-05-22T00:14:24;99706.84;;;15.15;100.00
53023;BME280;38913;44.338;11.206;2023-05-22T00:16:49;99696.75;;;15.34;100.00
53023;BME280;38913;44.338;11.206;2023-05-22T00:19:14;99707.38;;;15.40;100.00
53023;BME280;38913;44.338;11.206;2023-05-22T00:21:43;99715.94;;;15.42;100.00
53023;BME280;38913;44.338;11.206;2023-05-22T00:24:09;99712.66;;;15.34;100.00
53023;BME280;38913;44.338;11.206;2023-05-22T00:26:35;99715.06;;;15.36;100.00
53023;BME280;38913;44.338;11.206;2023-05-22T00:29:00;99712.72;;;15.17;100.00
53023;BME280;38913;44.338;11.206;2023-05-22T00:31:26;99705.56;;;15.18;100.00
53023;BME280;38913;44.338;11.206;2023-05-22T00:33:51;99695.88;;;15.06;100.00
53023;BME280;38913;44.338;11.206;2023-05-22T00:36:16;99686.31;;;15.05;100.00
53023;BME280;38913;44.338;11.206;2023-05-22T00:38:43;99676.94;;;15.20;100.00
53023;BME280;38913;44.338;11.206;2023-05-22T00:41:08;99692.91;;;15.25;100.00
53023;BME280;38913;44.338;11.206;2023-05-22T00:43:33;99698.78;;;15.27;100.00
53023;BME280;38913;44.338;11.206;2023-05-22T00:45:59;99702.84;;;15.13;100.00
53023;BME280;38913;44.338;11.206;2023-05-22T00:48:24;99688.59;;;15.19;100.00
53023;BME280;38913;44.338;11.206;2023-05-22T00:50:50;99683.34;;;15.24;100.00
53023;BME280;38913;44.338;11.206;2023-05-22T00:53:19;99691.31;;;15.02;100.00
53023;BME280;38913;44.338;11.206;2023-05-22T00:55:45;99695.00;;;15.01;100.00
53023;BME280;38913;44.338;11.206;2023-05-22T00:58:14;99686.63;;;14.87;100.00
53023;BME280;38913;44.338;11.206;2023-05-22T01:00:41;99673.47;;;14.97;100.00
53023;BME280;38913;44.338;11.206;2023-05-22T01:03:07;99667.38;;;14.97;100.00
53023;BME280;38913;44.338;11.206;2023-05-22T01:05:37;99681.72;;;14.78;100.00
53023;BME280;38913;44.338;11.206;2023-05-22T01:08:04;99675.81;;;14.93;100.00
53023;BME280;38913;44.338;11.206;2023-05-22T01:10:31;99680.06;;;14.94;100.00
53023;BME280;38913;44.338;11.206;2023-05-22T01:27:33;99686.31;;;14.83;100.00
53023;BME280;38913;44.338;11.206;2023-05-22T01:32:47;99719.19;;;14.31;100.00
53023;BME280;38913;44.338;11.206;2023-05-22T01:35:15;99716.38;;;14.37;100.00
53023;BME280;38913;44.338;11.206;2023-05-22T01:37:43;99694.78;;;14.46;100.00
53023;BME280;38913;44.338;11.206;2023-05-22T01:40:10;99679.50;;;14.53;100.00
53023;BME280;38913;44.338;11.206;2023-05-22T01:42:36;99673.41;;;14.52;100.00
53023;BME280;38913;44.338;11.206;2023-05-22T01:45:07;99653.81;;;14.53;100.00
53023;BME280;38913;44.338;11.206;2023-05-22T01:47:33;99669.13;;;14.51;100.00
53023;BME280;38913;44.338;11.206;2023-05-22T01:49:59;99655.19;;;14.39;100.00
53023;BME280;38913;44.338;11.206;2023-05-22T01:54:58;99649.09;;;14.38;100.00
53023;BME280;38913;44.338;11.206;2023-05-22T01:57:32;99650.34;;;14.53;100.00
53023;BME280;38913;44.338;11.206;2023-05-22T02:00:12;99655.19;;;14.56;100.00
53023;BME280;38913;44.338;11.206;2023-05-22T02:02:41;99656.03;;;14.62;100.00
53023;BME280;38913;44.338;11.206;2023-05-22T02:05:09;99670.84;;;14.06;100.00
53023;BME280;38913;44.338;11.206;2023-05-22T02:07:40;99671.59;;;14.19;100.00
53023;BME280;38913;44.338;11.206;2023-05-22T02:10:08;99660.41;;;14.34;100.00
53023;BME280;38913;44.338;11.206;2023-05-22T02:12:35;99659.44;;;14.40;100.00
53023;BME280;38913;44.338;11.206;2023-05-22T02:15:00;99660.56;;;14.27;100.00
53023;BME280;38913;44.338;11.206;2023-05-22T02:17:26;99657.69;;;14.29;100.00
53023;BME280;38913;44.338;11.206;2023-05-22T02:19:51;99647.66;;;14.31;100.00
53023;BME280;38913;44.338;11.206;2023-05-22T02:22:17;99640.97;;;14.45;100.00
53023;BME280;38913;44.338;11.206;2023-05-22T02:24:46;99655.25;;;14.44;100.00
53023;BME280;38913;44.338;11.206;2023-05-22T02:27:11;99657.78;;;14.34;100.00
53023;BME280;38913;44.338;11.206;2023-05-22T02:29:37;99651.53;;;14.23;100.00
53023;BME280;38913;44.338;11.206;2023-05-22T02:32:03;99645.28;;;14.12;100.00
53023;BME280;38913;44.338;11.206;2023-05-22T02:34:28;99651.75;;;14.21;100.00
53023;BME280;38913;44.338;11.206;2023-05-22T02:36:59;99666.19;;;14.13;100.00
53023;BME280;38913;44.338;11.206;2023-05-22T02:39:25;99647.50;;;14.20;100.00
53023;BME280;38913;44.338;11.206;2023-05-22T02:41:51;99658.09;;;14.03;100.00
53023;BME280;38913;44.338;11.206;2023-05-22T02:44:16;99660.84;;;14.08;100.00
53023;BME280;38913;44.338;11.206;2023-05-22T02:46:42;99650.47;;;14.07;100.00
53023;BME280;38913;44.338;11.206;2023-05-22T02:49:07;99652.25;;;14.01;100.00
53023;BME280;38913;44.338;11.206;2023-05-22T02:51:33;99644.78;;;13.81;100.00
53023;BME280;38913;44.338;11.206;2023-05-22T02:53:58;99639.56;;;13.86;100.00
53023;BME280;38913;44.338;11.206;2023-05-22T02:56:23;99636.06;;;13.97;100.00
53023;BME280;38913;44.338;11.206;2023-05-22T02:58:51;99631.22;;;13.94;100.00
53023;BME280;38913;44.338;11.206;2023-05-22T03:01:17;99628.34;;;13.96;100.00
53023;BME280;38913;44.338;11.206;2023-05-22T03:03:42;99633.31;;;13.92;100.00
53023;BME280;38913;44.338;11.206;2023-05-22T03:06:08;99632.34;;;13.98;100.00
53023;BME280;38913;44.338;11.206;2023-05-22T03:08:34;99623.34;;;13.99;100.00
53023;BME280;38913;44.338;11.206;2023-05-22T03:11:02;99625.78;;;14.01;100.00
53023;BME280;38913;44.338;11.206;2023-05-22T03:13:28;99639.38;;;13.76;100.00
53023;BME280;38913;44.338;11.206;2023-05-22T03:15:53;99626.88;;;13.88;100.00
53023;BME280;38913;44.338;11.206;2023-05-22T03:18:19;99640.75;;;13.78;100.00
53023;BME280;38913;44.338;11.206;2023-05-22T03:20:44;99642.75;;;13.71;100.00
53023;BME280;38913;44.338;11.206;2023-05-22T03:23:10;99640.53;;;13.80;100.00
53023;BME280;38913;44.338;11.206;2023-05-22T03:25:37;99651.97;;;13.68;100.00
53023;BME280;38913;44.338;11.206;2023-05-22T03:28:02;99648.13;;;13.59;100.00
53023;BME280;38913;44.338;11.206;2023-05-22T03:30:28;99646.41;;;13.53;100.00
53023;BME280;38913;44.338;11.206;2023-05-22T03:32:53;99637.56;;;13.76;100.00
53023;BME280;38913;44.338;11.206;2023-05-22T03:35:18;99643.66;;;13.77;100.00
53023;BME280;38913;44.338;11.206;2023-05-22T03:37:47;99639.47;;;13.64;100.00
53023;BME280;38913;44.338;11.206;2023-05-22T03:40:12;99637.69;;;13.69;100.00
53023;BME280;38913;44.338;11.206;2023-05-22T03:42:38;99641.03;;;13.48;100.00
53023;BME280;38913;44.338;11.206;2023-05-22T03:45:03;99638.72;;;13.51;100.00
53023;BME280;38913;44.338;11.206;2023-05-22T03:47:29;99631.59;;;13.69;100.00
53023;BME280;38913;44.338;11.206;2023-05-22T03:49:54;99627.41;;;13.73;100.00
53023;BME280;38913;44.338;11.206;2023-05-22T03:52:20;99620.72;;;13.82;100.00
53023;BME280;38913;44.338;11.206;2023-05-22T03:54:46;99625.13;;;13.77;100.00
53023;BME280;38913;44.338;11.206;2023-05-22T03:57:11;99629.28;;;13.73;100.00
53023;BME280;38913;44.338;11.206;2023-05-22T03:59:37;99627.28;;;13.80;100.00
53023;BME280;38913;44.338;11.206;2023-05-22T04:02:24;99634.28;;;13.86;100.00
53023;BME280;38913;44.338;11.206;2023-05-22T04:04:50;99632.03;;;13.95;100.00
53023;BME280;38913;44.338;11.206;2023-05-22T04:07:15;99636.75;;;14.10;100.00
53023;BME280;38913;44.338;11.206;2023-05-22T04:09:42;99658.84;;;13.98;100.00
53023;BME280;38913;44.338;11.206;2023-05-22T04:12:09;99659.22;;;13.90;100.00
53023;BME280;38913;44.338;11.206;2023-05-22T04:14:35;99664.25;;;13.75;100.00
53023;BME280;38913;44.338;11.206;2023-05-22T04:17:00;99660.97;;;13.84;100.00
53023;BME280;38913;44.338;11.206;2023-05-22T04:19:26;99658.72;;;13.76;100.00
53023;BME280;38913;44.338;11.206;2023-05-22T04:21:52;99656.91;;;13.77;100.00
53023;BME280;38913;44.338;11.206;2023-05-22T04:24:19;99653.34;;;13.88;100.00
53023;BME280;38913;44.338;11.206;2023-05-22T04:26:47;99648.13;;;14.28;100.00
53023;BME280;38913;44.338;11.206;2023-05-22T04:29:13;99681.44;;;14.06;100.00
53023;BME280;38913;44.338;11.206;2023-05-22T04:31:38;99693.00;;;14.00;100.00
53023;BME280;38913;44.338;11.206;2023-05-22T04:34:04;99693.59;;;14.93;100.00
53023;BME280;38913;44.338;11.206;2023-05-22T04:36:30;99733.19;;;15.94;100.00
53023;BME280;38913;44.338;11.206;2023-05-22T04:38:55;99770.94;;;15.74;100.00
53023;BME280;38913;44.338;11.206;2023-05-22T04:41:21;99780.25;;;15.77;100.00
53023;BME280;38913;44.338;11.206;2023-05-22T04:43:50;99794.91;;;16.01;100.00
53023;BME280;38913;44.338;11.206;2023-05-22T04:46:18;99799.16;;;16.30;100.00
53023;BME280;38913;44.338;11.206;2023-05-22T04:48:43;99823.28;;;17.32;100.00
53023;BME280;38913;44.338;11.206;2023-05-22T04:51:09;99872.16;;;18.64;100.00
53023;BME280;38913;44.338;11.206;2023-05-22T04:53:34;99974.66;;;19.14;100.00
53023;BME280;38913;44.338;11.206;2023-05-22T04:56:01;100072.34;;;19.88;100.00
53023;BME280;38913;44.338;11.206;2023-05-22T04:58:26;100173.16;;;20.08;100.00
53023;BME280;38913;44.338;11.206;2023-05-22T05:00:52;100209.47;;;19.78;100.00
53023;BME280;38913;44.338;11.206;2023-05-22T05:03:18;100178.97;;;18.74;100.00
53023;BME280;38913;44.338;11.206;2023-05-22T05:05:44;100144.53;;;19.52;100.00
53023;BME280;38913;44.338;11.206;2023-05-22T05:08:10;100203.56;;;20.59;100.00
53023;BME280;38913;44.338;11.206;2023-05-22T05:10:35;100253.66;;;21.80;100.00
53023;BME280;38913;44.338;11.206;2023-05-22T05:13:01;100286.59;;;22.26;100.00
53023;BME280;38913;44.338;11.206;2023-05-22T05:15:26;100279.63;;;22.84;100.00
53023;BME280;38913;44.338;11.206;2023-05-22T05:17:52;100300.94;;;23.24;100.00
53023;BME280;38913;44.338;11.206;2023-05-22T05:20:17;100315.16;;;23.87;100.00
53023;BME280;38913;44.338;11.206;2023-05-22T05:22:43;100269.22;;;24.36;100.00
53023;BME280;38913;44.338;11.206;2023-05-22T05:25:10;100223.03;;;24.15;100.00
53023;BME280;38913;44.338;11.206;2023-05-22T05:27:35;100135.66;;;25.05;100.00
53023;BME280;38913;44.338;11.206;2023-05-22T05:30:01;100085.75;;;25.08;100.00
53023;BME280;38913;44.338;11.206;2023-05-22T05:32:26;100155.47;;;24.59;100.00
53023;BME280;38913;44.338;11.206;2023-05-22T05:34:51;100094.81;;;25.12;100.00
53023;BME280;38913;44.338;11.206;2023-05-22T05:37:17;100049.22;;;25.79;100.00
53023;BME280;38913;44.338;11.206;2023-05-22T05:39:42;100052.34;;;25.63;100.00
53023;BME280;38913;44.338;11.206;2023-05-22T05:42:08;100010.50;;;26.24;100.00
53023;BME280;38913;44.338;11.206;2023-05-22T05:44:33;99972.84;;;26.63;100.00
53023;BME280;38913;44.338;11.206;2023-05-22T05:46:58;100055.78;;;25.87;100.00
53023;BME280;38913;44.338;11.206;2023-05-22T05:49:25;100087.59;;;25.76;100.00
53023;BME280;38913;44.338;11.206;2023-05-22T05:51:51;100186.03;;;25.56;100.00
53023;BME280;38913;44.338;11.206;2023-05-22T05:54:16;100054.50;;;26.42;100.00
53023;BME280;38913;44.338;11.206;2023-05-22T05:56:41;99980.16;;;26.36;100.00
53023;BME280;38913;44.338;11.206;2023-05-22T05:59:07;99971.06;;;27.11;100.00
53023;BME280;38913;44.338;11.206;2023-05-22T06:01:34;99999.69;;;26.51;100.00
53023;BME280;38913;44.338;11.206;2023-05-22T06:04:00;100011.47;;;26.64;100.00
53023;BME280;38913;44.338;11.206;2023-05-22T06:06:30;99968.44;;;26.32;100.00
53023;BME280;38913;44.338;11.206;2023-05-22T06:09:00;100000.78;;;27.11;100.00
53023;BME280;38913;44.338;11.206;2023-05-22T06:11:25;99966.72;;;27.19;100.00
53023;BME280;38913;44.338;11.206;2023-05-22T06:13:50;99878.09;;;28.49;100.00
53023;BME280;38913;44.338;11.206;2023-05-22T06:16:16;99751.63;;;28.87;100.00
53023;BME280;38913;44.338;11.206;2023-05-22T06:18:41;99665.47;;;29.78;100.00
53023;BME280;38913;44.338;11.206;2023-05-22T06:21:06;98910.78;;;30.48;100.00
53023;BME280;38913;44.338;11.206;2023-05-22T06:23:32;98749.91;;;29.56;100.00
53023;BME280;38913;44.338;11.206;2023-05-22T06:25:57;99095.44;;;30.45;100.00
53023;BME280;38913;44.338;11.206;2023-05-22T06:28:23;99516.84;;;31.02;100.00
53023;BME280;38913;44.338;11.206;2023-05-22T06:30:48;99657.19;;;31.90;100.00
53023;BME280;38913;44.338;11.206;2023-05-22T06:33:13;99766.75;;;31.83;100.00
53023;BME280;38913;44.338;11.206;2023-05-22T06:35:39;99793.72;;;32.55;100.00
53023;BME280;38913;44.338;11.206;2023-05-22T06:38:04;99800.13;;;31.24;100.00
53023;BME280;38913;44.338;11.206;2023-05-22T06:40:30;99806.78;;;32.02;100.00
53023;BME280;38913;44.338;11.206;2023-05-22T06:42:56;99786.78;;;30.35;100.00
53023;BME280;38913;44.338;11.206;2023-05-22T06:45:23;99823.66;;;32.31;100.00
53023;BME280;38913;44.338;11.206;2023-05-22T06:47:52;99818.31;;;31.76;100.00
53023;BME280;38913;44.338;11.206;2023-05-22T06:50:19;99812.81;;;31.92;100.00
53023;BME280;38913;44.338;11.206;2023-05-22T06:52:44;99822.47;;;32.75;100.00
53023;BME280;38913;44.338;11.206;2023-05-22T06:55:10;99805.13;;;31.58;100.00
53023;BME280;38913;44.338;11.206;2023-05-22T06:57:35;99825.97;;;31.70;100.00
53023;BME280;38913;44.338;11.206;2023-05-22T07:00:02;99812.19;;;32.22;100.00
53023;BME280;38913;44.338;11.206;2023-05-22T07:02:28;99824.94;;;33.69;100.00
53023;BME280;38913;44.338;11.206;2023-05-22T07:04:53;99837.88;;;34.48;100.00
53023;BME280;38913;44.338;11.206;2023-05-22T07:07:19;99838.97;;;34.85;100.00
53023;BME280;38913;44.338;11.206;2023-05-22T07:09:45;99828.84;;;33.41;100.00
53023;BME280;38913;44.338;11.206;2023-05-22T07:12:10;99817.66;;;31.82;100.00
53023;BME280;38913;44.338;11.206;2023-05-22T07:14:36;99788.53;;;30.92;100.00
53023;BME280;38913;44.338;11.206;2023-05-22T07:17:02;99826.13;;;33.41;100.00
53023;BME280;38913;44.338;11.206;2023-05-22T07:19:27;99836.16;;;34.74;100.00
53023;BME280;38913;44.338;11.206;2023-05-22T07:21:52;99817.94;;;31.57;100.00
53023;BME280;38913;44.338;11.206;2023-05-22T07:24:18;99754.88;;;29.46;100.00
53023;BME280;38913;44.338;11.206;2023-05-22T07:26:43;99680.84;;;29.17;100.00
53023;BME280;38913;44.338;11.206;2023-05-22T07:29:10;99718.72;;;30.80;100.00
53023;BME280;38913;44.338;11.206;2023-05-22T07:31:37;99803.63;;;32.94;100.00
53023;BME280;38913;44.338;11.206;2023-05-22T07:34:03;99845.06;;;36.08;100.00
53023;BME280;38913;44.338;11.206;2023-05-22T07:36:28;99860.63;;;37.71;100.00
53023;BME280;38913;44.338;11.206;2023-05-22T07:38:54;99863.53;;;36.99;98.27
53023;BME280;38913;44.338;11.206;2023-05-22T07:41:20;99860.03;;;38.13;94.48
53023;BME280;38913;44.338;11.206;2023-05-22T07:43:46;99857.94;;;39.58;86.69
53023;BME280;38913;44.338;11.206;2023-05-22T07:46:12;99866.91;;;39.97;80.44
53023;BME280;38913;44.338;11.206;2023-05-22T07:48:37;99857.50;;;40.45;82.09
53023;BME280;38913;44.338;11.206;2023-05-22T07:51:02;99859.94;;;39.85;78.07
53023;BME280;38913;44.338;11.206;2023-05-22T07:53:28;99859.63;;;41.06;77.65
53023;BME280;38913;44.338;11.206;2023-05-22T07:55:53;99851.94;;;41.17;73.31
53023;BME280;38913;44.338;11.206;2023-05-22T07:58:19;99853.25;;;41.09;70.36
53023;BME280;38913;44.338;11.206;2023-05-22T08:00:44;99859.09;;;41.35;71.95
53023;BME280;38913;44.338;11.206;2023-05-22T08:03:10;99851.25;;;42.24;66.23
53023;BME280;38913;44.338;11.206;2023-05-22T08:05:36;99854.03;;;42.24;67.93
53023;BME280;38913;44.338;11.206;2023-05-22T08:08:01;99853.78;;;42.81;64.07
53023;BME280;38913;44.338;11.206;2023-05-22T08:10:28;99847.53;;;42.64;63.59
53023;BME280;38913;44.338;11.206;2023-05-22T08:12:53;99850.06;;;43.17;60.82
53023;BME280;38913;44.338;11.206;2023-05-22T08:15:18;99847.41;;;41.84;63.32
53023;BME280;38913;44.338;11.206;2023-05-22T08:17:44;99837.69;;;43.22;62.68
53023;BME280;38913;44.338;11.206;2023-05-22T08:20:10;99833.88;;;42.56;57.78
53023;BME280;38913;44.338;11.206;2023-05-22T08:22:38;99836.06;;;43.50;58.59
53023;BME280;38913;44.338;11.206;2023-05-22T08:25:03;99827.72;;;41.62;62.84
53023;BME280;38913;44.338;11.206;2023-05-22T08:27:29;99826.47;;;44.42;56.17
53023;BME280;38913;44.338;11.206;2023-05-22T08:29:54;99829.16;;;44.33;56.12
53023;BME280;38913;44.338;11.206;2023-05-22T08:32:20;99831.66;;;44.05;55.33
53023;BME280;38913;44.338;11.206;2023-05-22T08:34:45;99827.72;;;44.15;57.22
53023;BME280;38913;44.338;11.206;2023-05-22T08:37:12;99832.25;;;45.06;52.44
53023;BME280;38913;44.338;11.206;2023-05-22T08:39:40;99827.88;;;45.58;54.00
53023;BME280;38913;44.338;11.206;2023-05-22T08:42:05;99829.19;;;44.07;55.39
53023;BME280;38913;44.338;11.206;2023-05-22T08:44:31;99824.78;;;43.71;54.57
53023;BME280;38913;44.338;11.206;2023-05-22T08:46:59;99822.41;;;44.08;51.25
53023;BME280;38913;44.338;11.206;2023-05-22T08:49:25;99825.16;;;42.25;55.51
53023;BME280;38913;44.338;11.206;2023-05-22T08:51:55;99820.78;;;43.03;54.33
53023;BME280;38913;44.338;11.206;2023-05-22T08:54:20;99822.69;;;44.49;51.79
53023;BME280;38913;44.338;11.206;2023-05-22T08:56:47;99821.97;;;44.09;51.89
53023;BME280;38913;44.338;11.206;2023-05-22T08:59:14;99820.97;;;44.29;52.85
53023;BME280;38913;44.338;11.206;2023-05-22T09:01:40;99813.94;;;44.95;49.15
53023;BME280;38913;44.338;11.206;2023-05-22T09:04:05;99820.03;;;44.45;51.11
53023;BME280;38913;44.338;11.206;2023-05-22T09:06:32;99803.81;;;40.74;62.12
53023;BME280;38913;44.338;11.206;2023-05-22T09:08:58;99787.03;;;35.77;79.56
53023;BME280;38913;44.338;11.206;2023-05-22T09:11:24;99778.34;;;35.50;90.00
53023;BME280;38913;44.338;11.206;2023-05-22T09:13:50;99768.22;;;33.89;98.17
53023;BME280;38913;44.338;11.206;2023-05-22T09:16:16;99762.44;;;33.60;100.00
53023;BME280;38913;44.338;11.206;2023-05-22T09:18:42;99760.03;;;32.43;100.00
53023;BME280;38913;44.338;11.206;2023-05-22T09:21:12;99743.75;;;32.47;100.00
53023;BME280;38913;44.338;11.206;2023-05-22T09:23:38;99751.75;;;31.73;100.00
53023;BME280;38913;44.338;11.206;2023-05-22T09:26:04;99748.91;;;31.46;100.00
53023;BME280;38913;44.338;11.206;2023-05-22T09:28:33;99751.13;;;31.05;100.00
53023;BME280;38913;44.338;11.206;2023-05-22T09:31:00;99738.81;;;30.91;100.00
53023;BME280;38913;44.338;11.206;2023-05-22T09:33:26;99739.63;;;30.59;100.00
53023;BME280;38913;44.338;11.206;2023-05-22T09:35:52;99735.16;;;30.19;100.00
53023;BME280;38913;44.338;11.206;2023-05-22T09:38:19;99736.25;;;29.73;100.00
53023;BME280;38913;44.338;11.206;2023-05-22T09:40:45;99727.97;;;29.53;100.00
53023;BME280;38913;44.338;11.206;2023-05-22T09:43:11;99734.56;;;29.97;100.00
53023;BME280;38913;44.338;11.206;2023-05-22T09:45:41;99729.41;;;29.22;100.00
53023;BME280;38913;44.338;11.206;2023-05-22T09:48:08;99721.09;;;29.03;100.00
53023;BME280;38913;44.338;11.206;2023-05-22T09:50:37;99697.66;;;29.23;100.00
53023;BME280;38913;44.338;11.206;2023-05-22T09:53:04;99703.91;;;28.98;100.00
53023;BME280;38913;44.338;11.206;2023-05-22T09:55:30;99672.75;;;28.17;100.00
53023;BME280;38913;44.338;11.206;2023-05-22T09:57:56;99635.44;;;28.23;100.00
53023;BME280;38913;44.338;11.206;2023-05-22T10:00:23;99658.41;;;29.04;100.00
53023;BME280;38913;44.338;11.206;2023-05-22T10:02:53;99659.84;;;29.14;100.00
53023;BME280;38913;44.338;11.206;2023-05-22T10:05:24;99691.69;;;29.17;100.00
53023;BME280;38913;44.338;11.206;2023-05-22T10:07:55;99652.91;;;28.76;100.00
53023;BME280;38913;44.338;11.206;2023-05-22T10:10:24;99612.94;;;28.10;100.00
53023;BME280;38913;44.338;11.206;2023-05-22T10:12:56;99610.50;;;28.05;100.00
53023;BME280;38913;44.338;11.206;2023-05-22T10:15:25;99570.91;;;28.25;100.00
53023;BME280;38913;44.338;11.206;2023-05-22T10:17:51;99584.16;;;28.68;100.00
53023;BME280;38913;44.338;11.206;2023-05-22T10:20:17;99606.13;;;28.79;100.00
53023;BME280;38913;44.338;11.206;2023-05-22T10:22:45;99632.22;;;28.96;100.00
53023;BME280;38913;44.338;11.206;2023-05-22T10:25:11;99644.66;;;29.25;100.00
53023;BME280;38913;44.338;11.206;2023-05-22T10:27:38;99659.53;;;29.32;100.00
53023;BME280;38913;44.338;11.206;2023-05-22T10:35:13;99681.03;;;28.33;100.00
53023;BME280;38913;44.338;11.206;2023-05-22T10:37:47;99642.59;;;27.94;100.00
53023;BME280;38913;44.338;11.206;2023-05-22T10:40:19;99648.63;;;28.37;100.00
53023;BME280;38913;44.338;11.206;2023-05-22T10:42:46;99615.19;;;27.71;100.00
53023;BME280;38913;44.338;11.206;2023-05-22T10:45:11;99529.00;;;27.48;100.00
53023;BME280;38913;44.338;11.206;2023-05-22T10:47:36;99552.88;;;27.12;100.00
53023;BME280;38913;44.338;11.206;2023-05-22T10:52:31;99536.78;;;27.03;100.00
53023;BME280;38913;44.338;11.206;2023-05-22T10:54:59;99594.66;;;27.82;100.00
53023;BME280;38913;44.338;11.206;2023-05-22T10:57:26;99615.22;;;28.08;100.00
53023;BME280;38913;44.338;11.206;2023-05-22T11:00:07;99616.28;;;27.70;100.00
53023;BME280;38913;44.338;11.206;2023-05-22T11:02:38;99597.97;;;27.20;100.00
53023;BME280;38913;44.338;11.206;2023-05-22T11:08:08;99564.38;;;27.09;100.00
53023;BME280;38913;44.338;11.206;2023-05-22T11:10:54;99521.56;;;27.11;100.00
53023;BME280;38913;44.338;11.206;2023-05-22T11:13:20;99483.78;;;26.68;100.00
53023;BME280;38913;44.338;11.206;2023-05-22T11:15:47;99499.22;;;26.47;100.00
53023;BME280;38913;44.338;11.206;2023-05-22T11:18:12;99491.72;;;26.31;100.00
53023;BME280;38913;44.338;11.206;2023-05-22T11:20:40;99566.53;;;26.73;100.00
53023;BME280;38913;44.338;11.206;2023-05-22T11:23:06;99503.16;;;26.70;100.00
53023;BME280;38913;44.338;11.206;2023-05-22T11:25:33;99518.19;;;26.59;100.00
53023;BME280;38913;44.338;11.206;2023-05-22T11:28:04;99459.28;;;26.74;100.00
53023;BME280;38913;44.338;11.206;2023-05-22T11:30:30;99413.75;;;26.29;100.00
53023;BME280;38913;44.338;11.206;2023-05-22T11:32:57;99458.28;;;26.14;100.00
53023;BME280;38913;44.338;11.206;2023-05-22T11:35:23;99447.06;;;26.34;100.00
53023;BME280;38913;44.338;11.206;2023-05-22T11:37:50;99407.13;;;26.18;100.00
53023;BME280;38913;44.338;11.206;2023-05-22T11:40:18;99390.03;;;26.14;100.00
53023;BME280;38913;44.338;11.206;2023-05-22T11:42:45;99257.84;;;26.26;100.00
53023;BME280;38913;44.338;11.206;2023-05-22T11:45:11;99378.31;;;26.10;100.00
53023;BME280;38913;44.338;11.206;2023-05-22T11:47:36;99384.63;;;26.56;100.00
53023;BME280;38913;44.338;11.206;2023-05-22T11:50:03;99394.47;;;26.74;100.00
53023;BME280;38913;44.338;11.206;2023-05-22T11:52:31;99431.50;;;27.19;100.00
53023;BME280;38913;44.338;11.206;2023-05-22T11:54:57;99436.00;;;27.15;100.00
53023;BME280;38913;44.338;11.206;2023-05-22T11:57:23;99351.81;;;26.79;100.00
53023;BME280;38913;44.338;11.206;2023-05-22T11:59:48;99423.25;;;26.36;100.00
53023;BME280;38913;44.338;11.206;2023-05-22T12:02:17;99401.09;;;26.21;100.00
53023;BME280;38913;44.338;11.206;2023-05-22T12:04:43;99428.41;;;26.20;100.00
53023;BME280;38913;44.338;11.206;2023-05-22T12:07:09;99448.44;;;26.61;100.00
53023;BME280;38913;44.338;11.206;2023-05-22T12:09:37;99494.91;;;26.67;100.00
53023;BME280;38913;44.338;11.206;2023-05-22T12:12:03;99521.09;;;26.54;100.00
53023;BME280;38913;44.338;11.206;2023-05-22T12:14:29;99369.03;;;26.75;100.00
53023;BME280;38913;44.338;11.206;2023-05-22T12:16:59;99431.47;;;26.73;100.00
53023;BME280;38913;44.338;11.206;2023-05-22T12:19:26;99383.47;;;26.91;100.00
53023;BME280;38913;44.338;11.206;2023-05-22T12:21:51;99300.16;;;26.81;100.00
53023;BME280;38913;44.338;11.206;2023-05-22T12:24:17;99495.66;;;26.55;100.00
53023;BME280;38913;44.338;11.206;2023-05-22T12:26:54;99508.28;;;26.84;100.00
53023;BME280;38913;44.338;11.206;2023-05-22T12:29:23;99509.75;;;26.82;100.00
53023;BME280;38913;44.338;11.206;2023-05-22T12:31:49;99535.03;;;26.35;100.00
53023;BME280;38913;44.338;11.206;2023-05-22T12:34:16;99606.66;;;26.32;100.00
53023;BME280;38913;44.338;11.206;2023-05-22T12:36:44;99628.03;;;26.46;100.00
53023;BME280;38913;44.338;11.206;2023-05-22T12:39:12;99609.31;;;26.41;100.00
53023;BME280;38913;44.338;11.206;2023-05-22T12:41:39;99602.47;;;26.43;100.00
53023;BME280;38913;44.338;11.206;2023-05-22T12:44:05;99602.75;;;26.51;100.00
53023;BME280;38913;44.338;11.206;2023-05-22T12:46:31;99598.22;;;25.95;100.00
53023;BME280;38913;44.338;11.206;2023-05-22T12:48:57;99566.50;;;26.30;100.00
53023;BME280;38913;44.338;11.206;2023-05-22T12:51:24;99555.44;;;26.23;100.00
53023;BME280;38913;44.338;11.206;2023-05-22T12:53:51;99552.53;;;26.28;100.00
53023;BME280;38913;44.338;11.206;2023-05-22T12:56:16;99541.59;;;26.25;100.00
53023;BME280;38913;44.338;11.206;2023-05-22T12:58:41;99568.28;;;26.17;100.00
53023;BME280;38913;44.338;11.206;2023-05-22T13:01:07;99558.81;;;26.11;100.00
53023;BME280;38913;44.338;11.206;2023-05-22T13:03:33;99550.81;;;26.24;100.00
53023;BME280;38913;44.338;11.206;2023-05-22T13:05:58;99545.59;;;26.19;100.00
53023;BME280;38913;44.338;11.206;2023-05-22T13:08:24;99568.28;;;26.17;100.00